Time;durP1;ratioP1;P1;durP2;ratioP2;P2;SDS_P1;SDS_P2;PMS_P1;PMS_P2;Temp;Humidity;BMP_temperature;BMP_pressure;BME280_temperature;BME280_humidity;BME280_pressure;Samples;Min_cycle;Max_cycle;Signal;HPM_P1;HPM_P2
2024/02/26 00:01:24;;;;;;;36.40;21.80;;;;;;;;;;103710;1293;544755;-71
2024/02/26 00:05:00;;;;;;;51.70;32.90;;;;;;;;;;103764;1295;545069;-71
2024/02/26 00:08:38;;;;;;;41.60;24.70;;;;;;;;;;103797;1289;545424;-71
2024/02/26 00:12:15;;;;;;;70.60;44.40;;;;;;;;;;103593;1292;545062;-71
2024/02/26 00:15:53;;;;;;;67.30;41.30;;;;;;;;;;103847;1289;545056;-71
2024/02/26 00:19:30;;;;;;;81.80;51.70;;;;;;;;;;103629;1291;545090;-71
2024/02/26 00:23:08;;;;;;;77.00;47.90;;;;;;;;;;103534;1293;544975;-71
2024/02/26 00:26:45;;;;;;;71.40;43.60;;;;;;;;;;103571;1297;544988;-71
2024/02/26 00:30:23;;;;;;;71.10;44.70;;;;;;;;;;103799;1289;545688;-71
2024/02/26 00:34:00;;;;;;;69.70;42.10;;;;;;;;;;103832;1289;545989;-71
2024/02/26 00:37:38;;;;;;;63.60;38.60;;;;;;;;;;103723;1292;545797;-71
2024/02/26 00:41:14;;;;;;;58.60;37.20;;;;;;;;;;103637;1292;545911;-71
2024/02/26 00:44:53;;;;;;;55.40;33.40;;;;;;;;;;103863;1289;545492;-71
2024/02/26 00:48:26;;;;;;;51.10;30.50;;;;;;;;;;103628;1291;545878;-71
2024/02/26 00:52:08;;;;;;;45.00;27.40;;;;;;;;;;103757;1295;546059;-71
2024/02/26 00:55:45;;;;;;;39.80;25.20;;;;;;;;;;103832;1290;544759;-71
2024/02/26 00:59:22;;;;;;;35.40;22.00;;;;;;;;;;103688;1289;545228;-71
2024/02/26 01:03:00;;;;;;;35.60;21.00;;;;;;;;;;103564;1292;544827;-71
2024/02/26 01:06:37;;;;;;;30.50;19.90;;;;;;;;;;103982;1289;544878;-71
2024/02/26 01:10:11;;;;;;;30.50;18.90;;;;;;;;;;103977;1289;544965;-71
2024/02/26 01:13:56;;;;;;;34.50;22.20;;;;;;;;;;103795;1295;545694;-71
2024/02/26 01:17:30;;;;;;;34.80;22.30;;;;;;;;;;103709;1292;544726;-71
2024/02/26 01:21:09;;;;;;;33.10;19.90;;;;;;;;;;103733;1289;544976;-71
2024/02/26 01:24:41;;;;;;;30.30;17.50;;;;;;;;;;103829;1292;545450;-71
2024/02/26 01:28:23;;;;;;;29.80;18.30;;;;;;;;;;103750;1292;545386;-71
2024/02/26 01:32:00;;;;;;;24.00;14.50;;;;;;;;;;103676;1291;545023;-72
2024/02/26 01:35:37;;;;;;;22.10;13.80;;;;;;;;;;103812;1289;544713;-71
2024/02/26 01:39:14;;;;;;;22.40;13.90;;;;;;;;;;103681;1293;545775;-71
2024/02/26 01:42:52;;;;;;;24.20;14.50;;;;;;;;;;104061;1292;544759;-71
2024/02/26 01:46:30;;;;;;;23.70;13.90;;;;;;;;;;103703;1290;545469;-71
2024/02/26 01:50:08;;;;;;;24.30;15.10;;;;;;;;;;103718;1291;544773;-71
2024/02/26 01:53:44;;;;;;;25.40;14.80;;;;;;;;;;103676;1295;545154;-71
2024/02/26 01:57:21;;;;;;;23.60;14.50;;;;;;;;;;103846;1289;544585;-71
2024/02/26 02:01:00;;;;;;;23.10;12.90;;;;;;;;;;103625;1291;545355;-71
2024/02/26 02:04:38;;;;;;;22.60;11.90;;;;;;;;;;104141;1285;544936;-71
2024/02/26 02:08:14;;;;;;;17.40;10.10;;;;;;;;;;103778;1292;544980;-71
2024/02/26 02:11:53;;;;;;;23.00;12.50;;;;;;;;;;103746;1289;546032;-71
2024/02/26 02:15:29;;;;;;;22.80;14.90;;;;;;;;;;103792;1290;545176;-71
2024/02/26 02:19:06;;;;;;;28.50;18.70;;;;;;;;;;103782;1289;546470;-71
2024/02/26 02:22:44;;;;;;;24.70;17.70;;;;;;;;;;103906;1287;545002;-71
2024/02/26 02:26:24;;;;;;;24.20;18.90;;;;;;;;;;103782;1292;544958;-71
2024/02/26 02:29:59;;;;;;;28.80;20.30;;;;;;;;;;103772;1289;545044;-71
2024/02/26 02:33:37;;;;;;;25.70;18.80;;;;;;;;;;103764;1292;544762;-71
2024/02/26 02:37:14;;;;;;;28.30;19.00;;;;;;;;;;104124;1286;544772;-71
2024/02/26 02:40:52;;;;;;;26.90;18.50;;;;;;;;;;103798;1289;545033;-71
2024/02/26 02:44:29;;;;;;;25.80;17.60;;;;;;;;;;103785;1290;545598;-71
2024/02/26 02:48:03;;;;;;;30.40;18.00;;;;;;;;;;103640;1293;544801;-71
2024/02/26 02:51:43;;;;;;;26.80;17.60;;;;;;;;;;103621;1291;545525;-71
2024/02/26 02:55:22;;;;;;;23.90;16.50;;;;;;;;;;103739;1289;544961;-71
2024/02/26 02:58:59;;;;;;;24.50;16.40;;;;;;;;;;103828;1290;544946;-71
2024/02/26 03:02:37;;;;;;;28.10;17.80;;;;;;;;;;103903;1290;544994;-71
2024/02/26 03:06:14;;;;;;;25.20;15.80;;;;;;;;;;103643;1295;545987;-71
2024/02/26 03:09:51;;;;;;;22.60;14.40;;;;;;;;;;103787;1289;544835;-71
2024/02/26 03:13:29;;;;;;;23.70;16.00;;;;;;;;;;103599;1291;544959;-71
2024/02/26 03:17:06;;;;;;;27.40;17.90;;;;;;;;;;103775;1292;544926;-71
2024/02/26 03:20:43;;;;;;;34.00;21.80;;;;;;;;;;103780;1289;545023;-71
2024/02/26 03:24:22;;;;;;;39.80;25.40;;;;;;;;;;104183;1285;545555;-71
2024/02/26 03:28:00;;;;;;;41.90;25.90;;;;;;;;;;103594;1292;545818;-71
2024/02/26 03:31:37;;;;;;;47.70;28.70;;;;;;;;;;103511;1295;545229;-71
2024/02/26 03:35:13;;;;;;;40.70;26.40;;;;;;;;;;103956;1292;545004;-71
2024/02/26 03:38:52;;;;;;;43.90;29.80;;;;;;;;;;103838;1289;545771;-71
2024/02/26 03:42:29;;;;;;;42.70;28.40;;;;;;;;;;103903;1288;545554;-71
2024/02/26 03:46:11;;;;;;;38.40;25.50;;;;;;;;;;104009;1302;544956;-71
2024/02/26 03:49:43;;;;;;;39.00;25.60;;;;;;;;;;103770;1289;545219;-71
2024/02/26 03:53:21;;;;;;;43.90;28.20;;;;;;;;;;103863;1289;545763;-71
2024/02/26 03:56:58;;;;;;;47.30;32.00;;;;;;;;;;103721;1292;544761;-71
2024/02/26 04:00:36;;;;;;;43.40;30.20;;;;;;;;;;103823;1289;545771;-71
2024/02/26 04:04:13;;;;;;;44.90;26.80;;;;;;;;;;103722;1291;546073;-70
2024/02/26 04:07:51;;;;;;;39.50;24.80;;;;;;;;;;103787;1292;544893;-71
2024/02/26 04:11:28;;;;;;;42.20;29.00;;;;;;;;;;103714;1290;545179;-71
2024/02/26 04:15:06;;;;;;;43.10;29.30;;;;;;;;;;103748;1295;544749;-71
2024/02/26 04:18:43;;;;;;;44.80;30.30;;;;;;;;;;103797;1292;545583;-71
2024/02/26 04:22:21;;;;;;;41.60;26.20;;;;;;;;;;103744;1292;544730;-71
2024/02/26 04:25:58;;;;;;;37.90;25.80;;;;;;;;;;103635;1295;546781;-71
2024/02/26 04:29:35;;;;;;;37.30;23.80;;;;;;;;;;103868;1289;545094;-71
2024/02/26 04:33:12;;;;;;;31.60;19.80;;;;;;;;;;103591;1290;545438;-71
2024/02/26 04:36:51;;;;;;;30.80;19.20;;;;;;;;;;103564;1295;545614;-71
2024/02/26 04:40:27;;;;;;;27.60;17.10;;;;;;;;;;103676;1289;545533;-71
2024/02/26 04:44:05;;;;;;;32.80;20.50;;;;;;;;;;103644;1289;545228;-71
2024/02/26 04:47:42;;;;;;;33.40;22.60;;;;;;;;;;103710;1289;545049;-71
2024/02/26 04:51:20;;;;;;;33.50;20.50;;;;;;;;;;103552;1291;544791;-71
2024/02/26 04:54:59;;;;;;;38.50;22.50;;;;;;;;;;103428;1291;544931;-71
2024/02/26 04:58:35;;;;;;;66.50;31.80;;;;;;;;;;103830;1292;545052;-71
2024/02/26 05:02:13;;;;;;;65.40;34.30;;;;;;;;;;103689;1289;545565;-71
2024/02/26 05:05:50;;;;;;;71.60;34.90;;;;;;;;;;103594;1292;545059;-71
2024/02/26 05:09:27;;;;;;;67.10;33.40;;;;;;;;;;103578;1288;544884;-71
2024/02/26 05:13:05;;;;;;;49.40;27.50;;;;;;;;;;103602;1296;545628;-71
2024/02/26 05:16:42;;;;;;;39.40;23.50;;;;;;;;;;103454;1295;544914;-70
2024/02/26 05:20:21;;;;;;;43.30;23.00;;;;;;;;;;103663;1289;545055;-70
2024/02/26 05:23:57;;;;;;;39.90;22.80;;;;;;;;;;103636;1291;545058;-71
2024/02/26 05:27:36;;;;;;;40.10;23.90;;;;;;;;;;103790;1291;545859;-70
2024/02/26 05:31:13;;;;;;;39.90;23.20;;;;;;;;;;103772;1289;545722;-70
2024/02/26 05:34:50;;;;;;;43.00;24.10;;;;;;;;;;103823;1292;545061;-71
2024/02/26 05:38:27;;;;;;;43.30;25.60;;;;;;;;;;103634;1289;545364;-71
2024/02/26 05:42:05;;;;;;;44.70;25.60;;;;;;;;;;103865;1289;544665;-71
2024/02/26 05:45:38;;;;;;;46.00;25.90;;;;;;;;;;103755;1301;544712;-70
2024/02/26 05:49:20;;;;;;;43.10;23.50;;;;;;;;;;103613;1289;544921;-71
2024/02/26 05:52:57;;;;;;;48.50;26.30;;;;;;;;;;103599;1291;546038;-71
2024/02/26 05:56:35;;;;;;;46.60;28.40;;;;;;;;;;103573;1289;545270;-71
2024/02/26 06:00:12;;;;;;;42.70;26.10;;;;;;;;;;103800;1288;545068;-71
2024/02/26 06:03:49;;;;;;;47.30;26.70;;;;;;;;;;103755;1292;545224;-71
2024/02/26 06:07:27;;;;;;;48.70;27.20;;;;;;;;;;103765;1289;544837;-71
2024/02/26 06:11:05;;;;;;;45.30;24.50;;;;;;;;;;103807;1292;544919;-71
2024/02/26 06:14:38;;;;;;;43.80;23.80;;;;;;;;;;104027;1290;546002;-71
2024/02/26 06:18:20;;;;;;;42.50;24.10;;;;;;;;;;103807;1288;544820;-71
2024/02/26 06:21:57;;;;;;;32.70;20.80;;;;;;;;;;103637;1291;544956;-71
2024/02/26 06:25:35;;;;;;;31.80;17.50;;;;;;;;;;104120;1286;544998;-71
2024/02/26 06:29:12;;;;;;;27.10;17.60;;;;;;;;;;103565;1294;545234;-71
2024/02/26 06:32:50;;;;;;;33.40;18.50;;;;;;;;;;105918;1289;544984;-71
2024/02/26 06:36:27;;;;;;;28.40;17.60;;;;;;;;;;103657;1295;546607;-71
2024/02/26 06:40:08;;;;;;;33.90;18.60;;;;;;;;;;103745;1292;544883;-71
2024/02/26 06:43:38;;;;;;;35.10;21.00;;;;;;;;;;104708;1289;545679;-71
2024/02/26 06:47:20;;;;;;;42.60;24.20;;;;;;;;;;103986;1289;545474;-71
2024/02/26 06:50:57;;;;;;;56.20;31.50;;;;;;;;;;103824;1291;545166;-71
2024/02/26 06:54:31;;;;;;;54.00;31.70;;;;;;;;;;103961;1289;545042;-71
2024/02/26 06:58:08;;;;;;;52.10;33.20;;;;;;;;;;103609;1289;545149;-71
2024/02/26 07:01:46;;;;;;;58.60;36.00;;;;;;;;;;105449;1289;544976;-72
2024/02/26 07:05:27;;;;;;;61.50;42.10;;;;;;;;;;104121;1290;548594;-71
2024/02/26 07:09:05;;;;;;;74.90;49.90;;;;;;;;;;103765;1290;545044;-70
2024/02/26 07:12:42;;;;;;;72.10;45.50;;;;;;;;;;103910;1289;544862;-72
2024/02/26 07:16:20;;;;;;;69.80;44.00;;;;;;;;;;103680;1292;544797;-71
2024/02/26 07:19:56;;;;;;;62.10;39.30;;;;;;;;;;103660;1298;545097;-71
2024/02/26 07:23:34;;;;;;;47.40;30.70;;;;;;;;;;103851;1292;545170;-72
2024/02/26 07:27:11;;;;;;;40.60;28.00;;;;;;;;;;103708;1291;544989;-71
2024/02/26 07:30:49;;;;;;;38.50;24.40;;;;;;;;;;103701;1292;545718;-71
2024/02/26 07:34:29;;;;;;;38.60;24.30;;;;;;;;;;103702;1289;544694;-72
2024/02/26 07:38:04;;;;;;;43.00;26.70;;;;;;;;;;103737;1291;546523;-71
2024/02/26 07:41:41;;;;;;;40.50;24.20;;;;;;;;;;103643;1291;546036;-72
2024/02/26 07:45:20;;;;;;;29.90;18.60;;;;;;;;;;103626;1292;544912;-71
2024/02/26 07:48:56;;;;;;;28.60;17.70;;;;;;;;;;103599;1291;544711;-71
2024/02/26 07:52:34;;;;;;;31.30;19.20;;;;;;;;;;103782;1301;545168;-71
2024/02/26 07:56:11;;;;;;;36.30;20.00;;;;;;;;;;103658;1289;544919;-72
2024/02/26 07:59:49;;;;;;;29.00;18.60;;;;;;;;;;103718;1295;544904;-72
2024/02/26 08:03:26;;;;;;;27.40;17.40;;;;;;;;;;103605;1294;545009;-72
2024/02/26 08:07:03;;;;;;;24.60;15.70;;;;;;;;;;103778;1292;544810;-72
2024/02/26 08:10:41;;;;;;;24.70;16.10;;;;;;;;;;103644;1291;544990;-72
2024/02/26 08:14:18;;;;;;;26.50;16.80;;;;;;;;;;103834;1289;544894;-72
2024/02/26 08:17:55;;;;;;;25.30;16.50;;;;;;;;;;103589;1292;544883;-72
2024/02/26 08:21:33;;;;;;;29.00;15.70;;;;;;;;;;103811;1292;545009;-72
2024/02/26 08:25:10;;;;;;;29.40;18.30;;;;;;;;;;103632;1295;545435;-71
2024/02/26 08:28:51;;;;;;;30.50;18.60;;;;;;;;;;103720;1290;545137;-72
2024/02/26 08:32:25;;;;;;;29.50;18.60;;;;;;;;;;103734;1289;544769;-72
2024/02/26 08:35:59;;;;;;;26.40;17.00;;;;;;;;;;103761;1292;545125;-72
2024/02/26 08:39:40;;;;;;;90.50;53.50;;;;;;;;;;103605;1291;545725;-72
2024/02/26 08:43:14;;;;;;;124.60;67.10;;;;;;;;;;103770;1289;545453;-70
2024/02/26 08:46:54;;;;;;;61.80;39.10;;;;;;;;;;103705;1292;544974;-72
2024/02/26 08:50:33;;;;;;;26.80;19.50;;;;;;;;;;103707;1291;544901;-72
2024/02/26 08:54:10;;;;;;;22.50;14.20;;;;;;;;;;104019;1286;544733;-72
2024/02/26 08:57:48;;;;;;;54.90;30.90;;;;;;;;;;103781;1289;544757;-72
2024/02/26 09:01:24;;;;;;;50.40;28.40;;;;;;;;;;103742;1292;544596;-72
2024/02/26 09:05:03;;;;;;;56.00;31.70;;;;;;;;;;103785;1290;545368;-71
2024/02/26 09:08:40;;;;;;;45.50;28.80;;;;;;;;;;103641;1292;544813;-71
2024/02/26 09:12:17;;;;;;;23.20;15.30;;;;;;;;;;103875;1295;544882;-72
2024/02/26 09:15:55;;;;;;;22.70;15.50;;;;;;;;;;103969;1290;545503;-72
2024/02/26 09:19:33;;;;;;;21.80;14.60;;;;;;;;;;103770;1289;544599;-72
2024/02/26 09:23:10;;;;;;;20.40;13.80;;;;;;;;;;103651;1292;544834;-72
2024/02/26 09:26:43;;;;;;;20.50;14.10;;;;;;;;;;103839;1289;545642;-72
2024/02/26 09:30:25;;;;;;;41.50;25.40;;;;;;;;;;103738;1291;545088;-72
2024/02/26 09:34:02;;;;;;;54.80;31.10;;;;;;;;;;103768;1295;544810;-71
2024/02/26 09:37:36;;;;;;;20.60;14.20;;;;;;;;;;103669;1289;544850;-70
2024/02/26 09:41:18;;;;;;;43.50;26.40;;;;;;;;;;103667;1291;546198;-72
2024/02/26 09:44:55;;;;;;;25.20;16.50;;;;;;;;;;103691;1290;544619;-72
2024/02/26 09:48:33;;;;;;;23.90;15.60;;;;;;;;;;103775;1289;545087;-72
2024/02/26 09:52:10;;;;;;;52.80;31.00;;;;;;;;;;103844;1294;544808;-71
2024/02/26 09:55:47;;;;;;;34.80;20.90;;;;;;;;;;103749;1290;545025;-72
2024/02/26 09:59:25;;;;;;;19.80;13.00;;;;;;;;;;103783;1292;545453;-71
2024/02/26 10:03:03;;;;;;;20.30;13.60;;;;;;;;;;104033;1289;544765;-71
2024/02/26 10:06:36;;;;;;;26.30;16.90;;;;;;;;;;103695;1289;545247;-70
2024/02/26 10:10:13;;;;;;;29.00;17.50;;;;;;;;;;103817;1289;544787;-72
2024/02/26 10:13:54;;;;;;;31.60;18.10;;;;;;;;;;103702;1291;545654;-71
2024/02/26 10:17:33;;;;;;;21.50;14.30;;;;;;;;;;103789;1289;545630;-72
2024/02/26 10:21:09;;;;;;;18.80;12.20;;;;;;;;;;103941;1291;544797;-72
2024/02/26 10:24:47;;;;;;;31.30;19.40;;;;;;;;;;103806;1289;545741;-72
2024/02/26 10:28:24;;;;;;;19.90;12.80;;;;;;;;;;104135;1286;545382;-72
2024/02/26 10:32:03;;;;;;;21.80;13.10;;;;;;;;;;103737;1289;544730;-71
2024/02/26 10:35:40;;;;;;;20.30;12.60;;;;;;;;;;103783;1289;545664;-70
2024/02/26 10:39:17;;;;;;;24.80;14.90;;;;;;;;;;103783;1289;544795;-72
2024/02/26 10:42:54;;;;;;;18.60;12.00;;;;;;;;;;103648;1290;545083;-72
2024/02/26 10:46:32;;;;;;;17.30;11.10;;;;;;;;;;103710;1291;545214;-72
2024/02/26 10:50:09;;;;;;;18.80;11.90;;;;;;;;;;103574;1291;545353;-71
2024/02/26 10:53:47;;;;;;;43.40;21.30;;;;;;;;;;103799;1292;545485;-72
2024/02/26 10:57:24;;;;;;;83.70;38.50;;;;;;;;;;103662;1290;544709;-72
2024/02/26 11:01:03;;;;;;;86.00;41.30;;;;;;;;;;103856;1289;545049;-72
2024/02/26 11:04:39;;;;;;;40.70;22.10;;;;;;;;;;103618;1295;545006;-72
2024/02/26 11:08:18;;;;;;;23.90;14.10;;;;;;;;;;103566;1291;545091;-72
2024/02/26 11:11:54;;;;;;;21.60;13.30;;;;;;;;;;103894;1288;544952;-70
2024/02/26 11:15:33;;;;;;;21.80;13.90;;;;;;;;;;103674;1292;544910;-72
2024/02/26 11:19:10;;;;;;;17.20;11.10;;;;;;;;;;103614;1293;544979;-72
2024/02/26 11:22:46;;;;;;;15.80;10.80;;;;;;;;;;103848;1290;545027;-72
2024/02/26 11:26:25;;;;;;;15.40;9.60;;;;;;;;;;103772;1289;544959;-71
2024/02/26 11:30:02;;;;;;;15.00;9.00;;;;;;;;;;103562;1292;545664;-71
2024/02/26 11:33:40;;;;;;;25.10;15.20;;;;;;;;;;103859;1289;544944;-71
2024/02/26 11:37:17;;;;;;;19.20;11.90;;;;;;;;;;103919;1289;545308;-72
2024/02/26 11:40:54;;;;;;;23.40;14.30;;;;;;;;;;103752;1292;546173;-72
2024/02/26 11:44:32;;;;;;;15.70;11.10;;;;;;;;;;103787;1289;545711;-71
2024/02/26 11:48:24;;;;;;;16.60;9.60;;;;;;;;;;103805;1289;545450;-72
2024/02/26 11:51:50;;;;;;;16.70;9.80;;;;;;;;;;103631;1291;545135;-72
2024/02/26 11:55:31;;;;;;;13.60;9.20;;;;;;;;;;103815;1295;545096;-71
2024/02/26 11:59:04;;;;;;;12.00;7.70;;;;;;;;;;103777;1290;546476;-71
2024/02/26 12:03:02;;;;;;;11.90;8.30;;;;;;;;;;103807;1289;544714;-72
2024/02/26 12:06:16;;;;;;;34.70;20.70;;;;;;;;;;103812;1295;544825;-71
2024/02/26 12:10:12;;;;;;;47.90;25.30;;;;;;;;;;103697;1290;544802;-72
2024/02/26 12:13:31;;;;;;;25.20;14.90;;;;;;;;;;103715;1292;544818;-71
2024/02/26 12:17:19;;;;;;;26.80;15.60;;;;;;;;;;103767;1295;545530;-72
2024/02/26 12:20:47;;;;;;;15.60;9.30;;;;;;;;;;103799;1291;544908;-71
2024/02/26 12:24:23;;;;;;;14.60;9.50;;;;;;;;;;103772;1289;544828;-72
2024/02/26 12:28:00;;;;;;;14.40;10.10;;;;;;;;;;103839;1302;544765;-71
2024/02/26 12:31:36;;;;;;;14.60;8.90;;;;;;;;;;103804;1289;544950;-70
2024/02/26 12:35:16;;;;;;;23.10;13.20;;;;;;;;;;103874;1295;545473;-72
2024/02/26 12:38:53;;;;;;;20.50;12.60;;;;;;;;;;103743;1292;544984;-71
2024/02/26 12:42:38;;;;;;;14.60;8.90;;;;;;;;;;103807;1289;545724;-72
2024/02/26 12:46:08;;;;;;;44.90;20.60;;;;;;;;;;103812;1290;544993;-72
2024/02/26 12:49:47;;;;;;;31.30;15.70;;;;;;;;;;103884;1289;544859;-71
2024/02/26 12:53:24;;;;;;;25.40;15.00;;;;;;;;;;103880;1289;545476;-72
2024/02/26 12:57:02;;;;;;;18.00;10.00;;;;;;;;;;104602;1282;544833;-73
2024/02/26 13:00:38;;;;;;;16.60;9.80;;;;;;;;;;103778;1289;544819;-72
2024/02/26 13:04:17;;;;;;;15.40;8.60;;;;;;;;;;103757;1291;544969;-72
2024/02/26 13:07:53;;;;;;;15.00;8.70;;;;;;;;;;104098;1287;545815;-72
2024/02/26 13:11:32;;;;;;;16.10;9.00;;;;;;;;;;103731;1290;545511;-72
2024/02/26 13:15:13;;;;;;;24.50;12.50;;;;;;;;;;104043;1286;544883;-71
2024/02/26 13:18:46;;;;;;;12.80;7.40;;;;;;;;;;103933;1295;545158;-72
2024/02/26 13:22:23;;;;;;;15.20;8.40;;;;;;;;;;104618;1283;545581;-72
2024/02/26 13:26:00;;;;;;;14.10;7.10;;;;;;;;;;103763;1288;545598;-72
2024/02/26 13:29:34;;;;;;;18.50;11.10;;;;;;;;;;103879;1292;545056;-72
2024/02/26 13:33:13;;;;;;;32.10;18.30;;;;;;;;;;103789;1289;544873;-71
2024/02/26 13:36:49;;;;;;;18.70;11.00;;;;;;;;;;103860;1289;544949;-73
2024/02/26 13:40:30;;;;;;;21.20;11.40;;;;;;;;;;103715;1292;544856;-72
2024/02/26 13:44:08;;;;;;;53.40;23.70;;;;;;;;;;103829;1300;545471;-72
2024/02/26 13:47:45;;;;;;;28.30;13.10;;;;;;;;;;103621;1291;544740;-73
2024/02/26 13:51:22;;;;;;;23.80;10.80;;;;;;;;;;103606;1292;545071;-72
2024/02/26 13:55:00;;;;;;;16.80;7.40;;;;;;;;;;103726;1291;545429;-72
2024/02/26 13:58:37;;;;;;;41.10;19.10;;;;;;;;;;103681;1292;545531;-72
2024/02/26 14:02:15;;;;;;;50.30;24.80;;;;;;;;;;103822;1289;544774;-72
2024/02/26 14:05:52;;;;;;;20.20;9.70;;;;;;;;;;103833;1292;544756;-72
2024/02/26 14:09:32;;;;;;;14.40;6.60;;;;;;;;;;103707;1294;545113;-72
2024/02/26 14:13:07;;;;;;;20.50;11.30;;;;;;;;;;103794;1289;545228;-72
2024/02/26 14:16:45;;;;;;;17.70;9.30;;;;;;;;;;103719;1293;545027;-72
2024/02/26 14:20:23;;;;;;;17.70;9.40;;;;;;;;;;103694;1295;544912;-72
2024/02/26 14:24:00;;;;;;;19.90;9.60;;;;;;;;;;103940;1289;545414;-72
2024/02/26 14:27:33;;;;;;;22.60;8.40;;;;;;;;;;103667;1290;545789;-71
2024/02/26 14:31:17;;;;;;;14.50;7.40;;;;;;;;;;103738;1293;545247;-72
2024/02/26 14:34:52;;;;;;;16.30;7.50;;;;;;;;;;103839;1289;544949;-72
2024/02/26 14:38:30;;;;;;;21.00;9.60;;;;;;;;;;103592;1291;544982;-72
2024/02/26 14:42:07;;;;;;;19.70;8.80;;;;;;;;;;104164;1291;544826;-72
2024/02/26 14:45:44;;;;;;;15.00;7.30;;;;;;;;;;103873;1293;545402;-72
2024/02/26 14:49:21;;;;;;;25.20;11.60;;;;;;;;;;103904;1288;544786;-72
2024/02/26 14:53:02;;;;;;;26.80;12.80;;;;;;;;;;103787;1289;545219;-72
2024/02/26 14:56:37;;;;;;;21.40;10.00;;;;;;;;;;103412;1297;544749;-71
2024/02/26 15:00:13;;;;;;;17.70;8.70;;;;;;;;;;103749;1292;544574;-72
2024/02/26 15:03:51;;;;;;;19.90;9.70;;;;;;;;;;103824;1291;545495;-72
2024/02/26 15:07:29;;;;;;;19.70;9.20;;;;;;;;;;104059;1286;545613;-72
2024/02/26 15:11:07;;;;;;;19.30;10.10;;;;;;;;;;103732;1291;544998;-72
2024/02/26 15:14:40;;;;;;;20.50;9.90;;;;;;;;;;103869;1288;545024;-71
2024/02/26 15:18:21;;;;;;;20.30;9.60;;;;;;;;;;103752;1292;545688;-72
2024/02/26 15:21:59;;;;;;;24.30;12.40;;;;;;;;;;103852;1292;545906;-72
2024/02/26 15:25:32;;;;;;;28.30;14.50;;;;;;;;;;103706;1289;544829;-70
2024/02/26 15:29:14;;;;;;;26.70;13.40;;;;;;;;;;104040;1288;544710;-72
2024/02/26 15:32:51;;;;;;;28.80;14.00;;;;;;;;;;103836;1289;545967;-72
2024/02/26 15:36:30;;;;;;;35.70;20.80;;;;;;;;;;103803;1289;545107;-72
2024/02/26 15:40:06;;;;;;;35.90;20.50;;;;;;;;;;103808;1292;545186;-72
2024/02/26 15:43:44;;;;;;;34.10;19.30;;;;;;;;;;103785;1293;545492;-72
2024/02/26 15:47:21;;;;;;;34.80;20.80;;;;;;;;;;103802;1289;545327;-72
2024/02/26 15:51:20;;;;;;;38.50;24.70;;;;;;;;;;103701;1292;548092;-72
2024/02/26 15:54:42;;;;;;;29.90;17.70;;;;;;;;;;103832;1290;544873;-72
2024/02/26 15:58:14;;;;;;;30.10;16.60;;;;;;;;;;103766;1289;544723;-72
2024/02/26 16:01:51;;;;;;;35.10;20.90;;;;;;;;;;103855;1302;545132;-72
2024/02/26 16:05:29;;;;;;;36.70;22.30;;;;;;;;;;103741;1291;544904;-73
2024/02/26 16:09:07;;;;;;;39.60;23.10;;;;;;;;;;103737;1291;546509;-72
2024/02/26 16:12:48;;;;;;;40.30;22.90;;;;;;;;;;103964;1291;544862;-72
2024/02/26 16:16:23;;;;;;;39.70;21.80;;;;;;;;;;103834;1289;545043;-72
2024/02/26 16:19:58;;;;;;;35.00;21.40;;;;;;;;;;103828;1292;544944;-72
2024/02/26 16:23:33;;;;;;;37.90;22.60;;;;;;;;;;103814;1289;544806;-70
2024/02/26 16:27:14;;;;;;;33.70;19.10;;;;;;;;;;103707;1293;546488;-72
2024/02/26 16:30:52;;;;;;;38.10;24.30;;;;;;;;;;103886;1302;545771;-72
2024/02/26 16:34:24;;;;;;;44.20;27.30;;;;;;;;;;104201;1286;544797;-70
2024/02/26 16:38:05;;;;;;;49.30;30.30;;;;;;;;;;104356;1283;545762;-72
2024/02/26 16:41:43;;;;;;;46.00;28.70;;;;;;;;;;103707;1295;544729;-72
2024/02/26 16:45:21;;;;;;;67.10;36.90;;;;;;;;;;103994;1288;545181;-72
2024/02/26 16:48:59;;;;;;;56.60;32.60;;;;;;;;;;105763;1289;544812;-72
2024/02/26 16:52:32;;;;;;;57.50;33.30;;;;;;;;;;103818;1295;545079;-70
2024/02/26 16:56:13;;;;;;;44.00;27.40;;;;;;;;;;103768;1289;545083;-72
2024/02/26 16:59:50;;;;;;;42.00;23.30;;;;;;;;;;103823;1289;545082;-72
2024/02/26 17:03:28;;;;;;;26.80;17.70;;;;;;;;;;103818;1289;545427;-72
2024/02/26 17:07:05;;;;;;;29.00;19.20;;;;;;;;;;103814;1289;544810;-72
2024/02/26 17:10:42;;;;;;;32.20;20.40;;;;;;;;;;103767;1289;544835;-72
2024/02/26 17:14:21;;;;;;;37.30;24.10;;;;;;;;;;103923;1289;545281;-72
2024/02/26 17:17:58;;;;;;;63.60;38.20;;;;;;;;;;103801;1288;545022;-72
2024/02/26 17:21:35;;;;;;;54.50;34.40;;;;;;;;;;103820;1289;544982;-72
2024/02/26 17:25:13;;;;;;;70.50;41.20;;;;;;;;;;103787;1289;545601;-72
2024/02/26 17:28:50;;;;;;;71.50;43.90;;;;;;;;;;103925;1291;546159;-72
2024/02/26 17:32:28;;;;;;;62.80;40.40;;;;;;;;;;103917;1292;544778;-72
2024/02/26 17:36:01;;;;;;;56.60;35.00;;;;;;;;;;103898;1288;545032;-72
2024/02/26 17:39:42;;;;;;;40.50;24.80;;;;;;;;;;103781;1294;545218;-72
2024/02/26 17:43:20;;;;;;;33.90;23.60;;;;;;;;;;104024;1294;544786;-72
2024/02/26 17:46:57;;;;;;;31.00;22.30;;;;;;;;;;103842;1292;545114;-72
2024/02/26 17:50:35;;;;;;;30.30;20.80;;;;;;;;;;103843;1290;545443;-72
2024/02/26 17:54:12;;;;;;;28.40;19.80;;;;;;;;;;103820;1292;545055;-71
2024/02/26 17:57:49;;;;;;;35.80;22.60;;;;;;;;;;103838;1291;545077;-72
2024/02/26 18:01:27;;;;;;;32.60;22.70;;;;;;;;;;103852;1295;544718;-72
2024/02/26 18:05:06;;;;;;;27.40;19.80;;;;;;;;;;103753;1291;545864;-72
2024/02/26 18:08:42;;;;;;;31.70;21.80;;;;;;;;;;103932;1289;544704;-72
2024/02/26 18:12:19;;;;;;;29.40;21.20;;;;;;;;;;103596;1298;544746;-72
2024/02/26 18:15:57;;;;;;;31.10;24.10;;;;;;;;;;103799;1292;545175;-72
2024/02/26 18:19:31;;;;;;;38.60;25.00;;;;;;;;;;103926;1290;544928;-72
2024/02/26 18:23:08;;;;;;;41.40;25.40;;;;;;;;;;103836;1289;544947;-72
2024/02/26 18:26:52;;;;;;;37.80;24.40;;;;;;;;;;103880;1288;544970;-72
2024/02/26 18:30:27;;;;;;;38.20;24.80;;;;;;;;;;103866;1289;546134;-72
2024/02/26 18:34:05;;;;;;;35.40;23.40;;;;;;;;;;103726;1291;544822;-72
2024/02/26 18:37:42;;;;;;;35.10;24.20;;;;;;;;;;103872;1290;545021;-72
2024/02/26 18:41:23;;;;;;;36.90;24.40;;;;;;;;;;103743;1292;546061;-72
2024/02/26 18:44:58;;;;;;;36.20;25.10;;;;;;;;;;103774;1293;545130;-72
2024/02/26 18:48:34;;;;;;;39.50;27.00;;;;;;;;;;103723;1291;545101;-72
2024/02/26 18:52:12;;;;;;;45.40;27.90;;;;;;;;;;103680;1302;544922;-72
2024/02/26 18:55:49;;;;;;;48.50;31.30;;;;;;;;;;103667;1303;545929;-72
2024/02/26 18:59:27;;;;;;;47.70;29.70;;;;;;;;;;103816;1292;545669;-72
2024/02/26 19:03:04;;;;;;;51.20;32.50;;;;;;;;;;103834;1292;545380;-72
2024/02/26 19:06:45;;;;;;;56.10;35.20;;;;;;;;;;104012;1290;545199;-72
2024/02/26 19:10:15;;;;;;;51.60;32.50;;;;;;;;;;103875;1289;545585;-72
2024/02/26 19:13:57;;;;;;;56.40;34.90;;;;;;;;;;103810;1290;544993;-72
2024/02/26 19:17:30;;;;;;;64.50;38.70;;;;;;;;;;103811;1289;545963;-72
2024/02/26 19:21:11;;;;;;;61.50;34.90;;;;;;;;;;103907;1293;545050;-72
2024/02/26 19:24:50;;;;;;;72.00;40.70;;;;;;;;;;103768;1292;544824;-72
2024/02/26 19:28:26;;;;;;;70.20;41.20;;;;;;;;;;103775;1291;545634;-72
2024/02/26 19:32:04;;;;;;;82.30;48.90;;;;;;;;;;103807;1296;545466;-72
2024/02/26 19:35:38;;;;;;;78.50;46.50;;;;;;;;;;103994;1289;545451;-70
2024/02/26 19:39:19;;;;;;;72.80;43.80;;;;;;;;;;103878;1289;544670;-72
2024/02/26 19:42:56;;;;;;;77.10;42.70;;;;;;;;;;103819;1293;545979;-72
2024/02/26 19:46:30;;;;;;;76.70;46.10;;;;;;;;;;104029;1289;545502;-72
2024/02/26 19:50:11;;;;;;;105.90;56.10;;;;;;;;;;103742;1290;544902;-72
2024/02/26 19:53:45;;;;;;;103.90;56.70;;;;;;;;;;103852;1289;545736;-71
2024/02/26 19:57:26;;;;;;;104.90;57.50;;;;;;;;;;103842;1289;545065;-72
2024/02/26 20:01:03;;;;;;;91.90;51.40;;;;;;;;;;103783;1300;544785;-72
2024/02/26 20:04:41;;;;;;;96.20;52.30;;;;;;;;;;103638;1293;544750;-72
2024/02/26 20:08:18;;;;;;;102.00;53.80;;;;;;;;;;103809;1292;544780;-72
2024/02/26 20:11:58;;;;;;;110.70;55.30;;;;;;;;;;103947;1289;544913;-72
2024/02/26 20:15:29;;;;;;;106.50;55.30;;;;;;;;;;104110;1292;544828;-72
2024/02/26 20:19:12;;;;;;;95.60;53.00;;;;;;;;;;103672;1291;544809;-72
2024/02/26 20:22:48;;;;;;;86.30;50.10;;;;;;;;;;103575;1291;545943;-72
2024/02/26 20:26:26;;;;;;;99.80;56.70;;;;;;;;;;103818;1289;545884;-72
2024/02/26 20:30:03;;;;;;;98.60;54.80;;;;;;;;;;103626;1291;545004;-72